JST920 YMML-YSSY
Flight info
| Callsign | JST920 |
|---|---|
| Flight time | 1h 5m |
| Altitude | 37000 |
| Route | ML H129 DOSEL Y59 RIVET |
| Aircraft | A320/M-SDE3FGHIRWY/LB1 |
Departure
| Time | 2026-05-08 05:45 |
|---|---|
| Airport | Melbourne Airport (YMML) |
Arrival
| Time | 2026-05-08 06:50 |
|---|---|
| Airport | Sydney Kingsford Smith International Airport (YSSY) |
| Time | Latitude | Longitude | Altitude | Speed | Heading |
|---|---|---|---|---|---|
| 2026-05-08 05:29 | -37.67269 | 144.84660 | 442 ft | 0 kts | 171° |
| 2026-05-08 05:33 | -37.67270 | 144.84660 | 442 ft | 0 kts | 171° |
| 2026-05-08 05:33 | -37.67257 | 144.84659 | 442 ft | 2 kts | 173° |
| 2026-05-08 05:33 | -37.67243 | 144.84656 | 442 ft | 2 kts | 171° |
| 2026-05-08 05:34 | -37.67228 | 144.84653 | 442 ft | 2 kts | 172° |
| 2026-05-08 05:34 | -37.67213 | 144.84650 | 442 ft | 2 kts | 171° |
| 2026-05-08 05:34 | -37.67195 | 144.84653 | 442 ft | 0 kts | 254° |
| 2026-05-08 05:35 | -37.67195 | 144.84660 | 442 ft | 1 kts | 262° |
| 2026-05-08 05:35 | -37.67195 | 144.84662 | 442 ft | 0 kts | 261° |
| 2026-05-08 05:38 | -37.67199 | 144.84627 | 442 ft | 7 kts | 260° |
| 2026-05-08 05:38 | -37.67210 | 144.84551 | 442 ft | 10 kts | 261° |
| 2026-05-08 05:38 | -37.67202 | 144.84447 | 442 ft | 13 kts | 276° |
| 2026-05-08 05:39 | -37.67209 | 144.84315 | 442 ft | 16 kts | 265° |
| 2026-05-08 05:39 | -37.67221 | 144.84163 | 442 ft | 18 kts | 264° |
| 2026-05-08 05:39 | -37.67147 | 144.84052 | 442 ft | 20 kts | 348° |
| 2026-05-08 05:39 | -37.67004 | 144.84024 | 442 ft | 21 kts | 351° |
| 2026-05-08 05:40 | -37.66848 | 144.83993 | 442 ft | 23 kts | 351° |
| 2026-05-08 05:40 | -37.66681 | 144.83963 | 442 ft | 24 kts | 352° |
| 2026-05-08 05:40 | -37.66525 | 144.83933 | 442 ft | 9 kts | 351° |
| 2026-05-08 05:40 | -37.66511 | 144.83946 | 442 ft | 4 kts | 90° |
| 2026-05-08 05:41 | -37.66518 | 144.84029 | 442 ft | 16 kts | 95° |
| 2026-05-08 05:41 | -37.66528 | 144.84180 | 442 ft | 17 kts | 94° |
| 2026-05-08 05:41 | -37.66522 | 144.84338 | 442 ft | 18 kts | 82° |
| 2026-05-08 05:41 | -37.66504 | 144.84497 | 442 ft | 18 kts | 81° |
| 2026-05-08 05:42 | -37.66484 | 144.84665 | 442 ft | 19 kts | 77° |
| 2026-05-08 05:42 | -37.66467 | 144.84717 | 442 ft | 19 kts | 59° |
| 2026-05-08 05:42 | -37.66352 | 144.84786 | 442 ft | 4 kts | 5° |
| 2026-05-08 05:42 | -37.66350 | 144.84786 | 442 ft | 0 kts | 5° |
| 2026-05-08 05:43 | -37.66349 | 144.84786 | 442 ft | 0 kts | 5° |
| 2026-05-08 05:43 | -37.66311 | 144.84786 | 442 ft | 9 kts | 352° |
| 2026-05-08 05:44 | -37.66233 | 144.84727 | 442 ft | 16 kts | 303° |
| 2026-05-08 05:44 | -37.66204 | 144.84451 | 442 ft | 69 kts | 273° |
| 2026-05-08 05:44 | -37.66148 | 144.83456 | 443 ft | 152 kts | 273° |
| 2026-05-08 05:44 | -37.66043 | 144.81988 | 990 ft | 176 kts | 271° |
| 2026-05-08 05:45 | -37.65950 | 144.80516 | 2110 ft | 171 kts | 270° |
| 2026-05-08 05:45 | -37.65865 | 144.79047 | 3006 ft | 175 kts | 270° |
| 2026-05-08 05:45 | -37.65777 | 144.77437 | 3637 ft | 192 kts | 270° |
| 2026-05-08 05:45 | -37.65678 | 144.75618 | 4204 ft | 217 kts | 271° |
| 2026-05-08 05:46 | -37.65566 | 144.73637 | 4907 ft | 236 kts | 271° |
| 2026-05-08 05:46 | -37.65442 | 144.71506 | 5641 ft | 253 kts | 271° |
| 2026-05-08 05:46 | -37.65309 | 144.69251 | 6644 ft | 260 kts | 272° |
| 2026-05-08 05:46 | -37.64876 | 144.67041 | 7728 ft | 266 kts | 295° |
| 2026-05-08 05:47 | -37.63684 | 144.65276 | 8792 ft | 275 kts | 320° |
| 2026-05-08 05:47 | -37.61923 | 144.64273 | 9869 ft | 283 kts | 338° |
| 2026-05-08 05:47 | -37.60055 | 144.63588 | 10890 ft | 285 kts | 339° |
| 2026-05-08 05:47 | -37.58093 | 144.62889 | 11528 ft | 301 kts | 341° |
| 2026-05-08 05:48 | -37.56644 | 144.62619 | 11848 ft | 320 kts | 354° |
| 2026-05-08 05:48 | -37.53556 | 144.63506 | 12431 ft | 360 kts | 23° |
| 2026-05-08 05:48 | -37.51541 | 144.65536 | 12792 ft | 390 kts | 45° |
| 2026-05-08 05:48 | -37.49849 | 144.68295 | 13189 ft | 409 kts | 50° |
| 2026-05-08 05:49 | -37.48163 | 144.71286 | 13738 ft | 420 kts | 52° |
| 2026-05-08 05:49 | -37.46579 | 144.74419 | 14588 ft | 424 kts | 56° |
| 2026-05-08 05:49 | -37.45124 | 144.77599 | 15545 ft | 423 kts | 56° |
| 2026-05-08 05:49 | -37.43634 | 144.80888 | 16280 ft | 428 kts | 56° |
| 2026-05-08 05:50 | -37.42141 | 144.84172 | 16943 ft | 433 kts | 56° |
| 2026-05-08 05:50 | -37.41119 | 144.86412 | 17394 ft | 437 kts | 56° |
| 2026-05-08 05:50 | -37.39574 | 144.89787 | 18058 ft | 442 kts | 56° |
| 2026-05-08 05:50 | -37.37505 | 144.94290 | 18907 ft | 449 kts | 55° |
| 2026-05-08 05:51 | -37.35899 | 144.97777 | 19534 ft | 453 kts | 55° |
| 2026-05-08 05:51 | -37.34322 | 145.01196 | 20113 ft | 459 kts | 55° |
| 2026-05-08 05:51 | -37.32704 | 145.04698 | 20681 ft | 464 kts | 55° |
| 2026-05-08 05:51 | -37.31081 | 145.08209 | 21225 ft | 469 kts | 55° |
| 2026-05-08 05:52 | -37.29419 | 145.11797 | 21765 ft | 474 kts | 55° |
| 2026-05-08 05:52 | -37.27739 | 145.15422 | 22284 ft | 479 kts | 55° |
| 2026-05-08 05:52 | -37.26033 | 145.19098 | 22845 ft | 483 kts | 55° |
| 2026-05-08 05:52 | -37.24315 | 145.22800 | 23483 ft | 484 kts | 55° |
| 2026-05-08 05:53 | -37.22598 | 145.26491 | 24015 ft | 488 kts | 54° |
| 2026-05-08 05:53 | -37.20865 | 145.30208 | 24512 ft | 492 kts | 54° |
| 2026-05-08 05:53 | -37.19112 | 145.33964 | 24987 ft | 496 kts | 54° |
| 2026-05-08 05:53 | -37.17306 | 145.37808 | 25456 ft | 499 kts | 53° |
| 2026-05-08 05:54 | -37.15361 | 145.41573 | 25907 ft | 500 kts | 50° |
| 2026-05-08 05:54 | -37.13327 | 145.45183 | 26327 ft | 503 kts | 49° |
| 2026-05-08 05:54 | -37.11284 | 145.48744 | 26723 ft | 506 kts | 48° |
| 2026-05-08 05:54 | -37.09208 | 145.52345 | 27112 ft | 509 kts | 48° |
| 2026-05-08 05:55 | -37.07105 | 145.55988 | 27493 ft | 511 kts | 48° |
| 2026-05-08 05:55 | -37.05019 | 145.59605 | 27974 ft | 511 kts | 48° |
| 2026-05-08 05:55 | -37.02947 | 145.63202 | 28510 ft | 509 kts | 48° |
| 2026-05-08 05:55 | -37.00856 | 145.66835 | 29024 ft | 508 kts | 47° |
| 2026-05-08 05:56 | -36.98804 | 145.70409 | 29510 ft | 507 kts | 47° |
| 2026-05-08 05:56 | -36.96726 | 145.74022 | 29984 ft | 506 kts | 47° |
| 2026-05-08 05:56 | -36.94666 | 145.77596 | 30442 ft | 505 kts | 47° |
| 2026-05-08 05:56 | -36.93980 | 145.78783 | 30593 ft | 505 kts | 47° |
| 2026-05-08 05:58 | -36.80717 | 146.01547 | 33297 ft | 502 kts | 46° |
| 2026-05-08 05:58 | -36.78651 | 146.05083 | 33680 ft | 502 kts | 46° |
| 2026-05-08 05:58 | -36.76577 | 146.08633 | 34053 ft | 501 kts | 46° |
| 2026-05-08 05:59 | -36.74528 | 146.12137 | 34415 ft | 501 kts | 46° |
| 2026-05-08 05:59 | -36.72458 | 146.15674 | 34775 ft | 500 kts | 46° |
| 2026-05-08 05:59 | -36.70398 | 146.19188 | 35123 ft | 500 kts | 46° |
| 2026-05-08 05:59 | -36.68330 | 146.22716 | 35466 ft | 499 kts | 46° |
| 2026-05-08 06:00 | -36.66271 | 146.26222 | 35768 ft | 499 kts | 46° |
| 2026-05-08 06:00 | -36.64213 | 146.29723 | 36019 ft | 500 kts | 46° |
| 2026-05-08 06:00 | -36.62139 | 146.33246 | 36249 ft | 501 kts | 46° |
| 2026-05-08 06:00 | -36.60047 | 146.36798 | 36467 ft | 502 kts | 46° |
| 2026-05-08 06:01 | -36.58006 | 146.40260 | 36670 ft | 503 kts | 46° |
| 2026-05-08 06:01 | -36.55904 | 146.43822 | 36868 ft | 505 kts | 46° |
| 2026-05-08 06:01 | -36.53809 | 146.47369 | 37057 ft | 506 kts | 46° |
| 2026-05-08 06:01 | -36.51725 | 146.50896 | 37230 ft | 507 kts | 46° |
| 2026-05-08 06:02 | -36.49643 | 146.54413 | 37262 ft | 509 kts | 46° |
| 2026-05-08 06:02 | -36.45436 | 146.61514 | 37273 ft | 509 kts | 46° |
| 2026-05-08 06:03 | -36.41190 | 146.68677 | 37273 ft | 509 kts | 45° |
| 2026-05-08 06:03 | -36.36993 | 146.75761 | 37275 ft | 508 kts | 45° |
| 2026-05-08 06:04 | -36.32764 | 146.82860 | 37275 ft | 508 kts | 45° |
| 2026-05-08 06:04 | -36.28537 | 146.89926 | 37272 ft | 508 kts | 45° |
| 2026-05-08 06:05 | -36.24245 | 146.97073 | 37247 ft | 509 kts | 46° |
| 2026-05-08 06:05 | -36.19839 | 147.04398 | 37209 ft | 511 kts | 46° |
| 2026-05-08 06:06 | -36.15388 | 147.11810 | 37175 ft | 513 kts | 46° |
| 2026-05-08 06:06 | -36.10968 | 147.19168 | 37156 ft | 514 kts | 46° |
| 2026-05-08 06:07 | -36.06537 | 147.26512 | 37147 ft | 514 kts | 46° |
| 2026-05-08 06:07 | -36.02121 | 147.33803 | 37142 ft | 514 kts | 46° |
| 2026-05-08 06:08 | -35.97646 | 147.41174 | 37141 ft | 514 kts | 46° |
| 2026-05-08 06:08 | -35.93218 | 147.48450 | 37141 ft | 514 kts | 46° |
| 2026-05-08 06:09 | -35.88723 | 147.55806 | 37141 ft | 514 kts | 46° |
| 2026-05-08 06:09 | -35.84191 | 147.63176 | 37140 ft | 514 kts | 46° |
| 2026-05-08 06:10 | -35.79760 | 147.70441 | 37139 ft | 514 kts | 46° |
| 2026-05-08 06:10 | -35.75327 | 147.77712 | 37140 ft | 514 kts | 46° |
| 2026-05-08 06:11 | -35.70903 | 147.84923 | 37140 ft | 514 kts | 46° |
| 2026-05-08 06:11 | -35.66495 | 147.92081 | 37140 ft | 514 kts | 46° |
| 2026-05-08 06:12 | -35.62052 | 147.99278 | 37140 ft | 514 kts | 46° |
| 2026-05-08 06:12 | -35.57623 | 148.06438 | 37141 ft | 513 kts | 46° |
| 2026-05-08 06:13 | -35.53187 | 148.13591 | 37140 ft | 513 kts | 46° |
| 2026-05-08 06:13 | -35.48837 | 148.20587 | 37140 ft | 514 kts | 46° |
| 2026-05-08 06:14 | -35.44455 | 148.27623 | 37140 ft | 514 kts | 46° |
| 2026-05-08 06:14 | -35.40092 | 148.34639 | 37140 ft | 514 kts | 46° |
| 2026-05-08 06:15 | -35.35698 | 148.41696 | 37140 ft | 514 kts | 46° |
| 2026-05-08 06:15 | -35.31308 | 148.48720 | 37140 ft | 514 kts | 46° |
| 2026-05-08 06:16 | -35.26926 | 148.55707 | 37141 ft | 514 kts | 46° |
| 2026-05-08 06:16 | -35.22501 | 148.62747 | 37141 ft | 514 kts | 46° |
| 2026-05-08 06:17 | -35.16823 | 148.71793 | 37139 ft | 514 kts | 45° |
| 2026-05-08 06:17 | -35.12419 | 148.78792 | 37140 ft | 513 kts | 45° |
| 2026-05-08 06:18 | -35.08904 | 148.84351 | 37140 ft | 514 kts | 45° |
| 2026-05-08 06:18 | -35.04498 | 148.91296 | 37139 ft | 515 kts | 45° |
| 2026-05-08 06:19 | -35.00088 | 148.98238 | 37140 ft | 517 kts | 46° |
| 2026-05-08 06:19 | -34.95620 | 149.05255 | 37140 ft | 518 kts | 46° |
| 2026-05-08 06:20 | -34.91170 | 149.12239 | 37141 ft | 518 kts | 47° |
| 2026-05-08 06:20 | -34.86686 | 149.19232 | 36813 ft | 517 kts | 46° |
| 2026-05-08 06:21 | -34.84502 | 149.22624 | 36565 ft | 514 kts | 46° |
| 2026-05-08 06:21 | -34.82296 | 149.26054 | 36294 ft | 511 kts | 46° |
| 2026-05-08 06:21 | -34.80094 | 149.29483 | 35857 ft | 509 kts | 46° |
| 2026-05-08 06:21 | -34.77918 | 149.32872 | 35269 ft | 508 kts | 46° |
| 2026-05-08 06:22 | -34.75792 | 149.36258 | 34568 ft | 511 kts | 49° |
| 2026-05-08 06:22 | -34.73752 | 149.39893 | 33769 ft | 516 kts | 53° |
| 2026-05-08 06:22 | -34.71908 | 149.43671 | 32930 ft | 521 kts | 58° |
| 2026-05-08 06:22 | -34.70195 | 149.47557 | 32130 ft | 523 kts | 59° |
| 2026-05-08 06:23 | -34.68504 | 149.51482 | 31344 ft | 523 kts | 59° |
| 2026-05-08 06:23 | -34.66239 | 149.56737 | 30229 ft | 524 kts | 59° |
| 2026-05-08 06:23 | -34.65107 | 149.59352 | 29651 ft | 524 kts | 59° |
| 2026-05-08 06:23 | -34.63419 | 149.63231 | 28782 ft | 524 kts | 60° |
| 2026-05-08 06:24 | -34.61715 | 149.67131 | 27882 ft | 524 kts | 59° |
| 2026-05-08 06:24 | -34.59994 | 149.71072 | 26936 ft | 523 kts | 59° |
| 2026-05-08 06:24 | -34.58282 | 149.74988 | 26311 ft | 515 kts | 59° |
| 2026-05-08 06:24 | -34.56629 | 149.78757 | 25763 ft | 507 kts | 59° |
| 2026-05-08 06:25 | -34.54945 | 149.82582 | 25183 ft | 500 kts | 59° |
| 2026-05-08 06:25 | -34.52783 | 149.87476 | 24422 ft | 493 kts | 60° |
| 2026-05-08 06:25 | -34.51693 | 149.89941 | 24031 ft | 489 kts | 60° |
| 2026-05-08 06:25 | -34.50093 | 149.93562 | 23454 ft | 484 kts | 60° |
| 2026-05-08 06:26 | -34.48508 | 149.97160 | 22869 ft | 480 kts | 60° |
| 2026-05-08 06:26 | -34.46883 | 150.00847 | 22272 ft | 475 kts | 60° |
| 2026-05-08 06:26 | -34.44770 | 150.05626 | 21490 ft | 468 kts | 60° |
| 2026-05-08 06:26 | -34.43720 | 150.07994 | 21100 ft | 465 kts | 60° |
| 2026-05-08 06:27 | -34.42181 | 150.11462 | 20528 ft | 460 kts | 60° |
| 2026-05-08 06:27 | -34.40649 | 150.14909 | 19952 ft | 456 kts | 60° |
| 2026-05-08 06:27 | -34.39106 | 150.18376 | 19368 ft | 451 kts | 60° |
| 2026-05-08 06:27 | -34.37608 | 150.21736 | 18800 ft | 446 kts | 60° |
| 2026-05-08 06:28 | -34.36076 | 150.25168 | 18214 ft | 442 kts | 60° |
| 2026-05-08 06:28 | -34.34594 | 150.28485 | 17645 ft | 437 kts | 61° |
| 2026-05-08 06:28 | -34.33133 | 150.31752 | 17079 ft | 433 kts | 61° |
| 2026-05-08 06:28 | -34.31657 | 150.35046 | 16503 ft | 428 kts | 61° |
| 2026-05-08 06:29 | -34.30216 | 150.38261 | 15955 ft | 424 kts | 61° |
| 2026-05-08 06:29 | -34.28790 | 150.41441 | 15396 ft | 419 kts | 61° |
| 2026-05-08 06:29 | -34.27382 | 150.44588 | 14829 ft | 415 kts | 61° |
| 2026-05-08 06:29 | -34.25521 | 150.48763 | 14071 ft | 410 kts | 61° |
| 2026-05-08 06:30 | -34.24601 | 150.50824 | 13699 ft | 407 kts | 61° |
| 2026-05-08 06:30 | -34.23233 | 150.53880 | 13144 ft | 403 kts | 61° |
| 2026-05-08 06:30 | -34.21422 | 150.57915 | 12406 ft | 397 kts | 62° |
| 2026-05-08 06:30 | -34.20532 | 150.59895 | 12042 ft | 395 kts | 62° |
| 2026-05-08 06:31 | -34.19193 | 150.62877 | 11484 ft | 391 kts | 62° |
| 2026-05-08 06:31 | -34.17868 | 150.65828 | 10910 ft | 387 kts | 61° |
| 2026-05-08 06:31 | -34.16590 | 150.68689 | 10575 ft | 376 kts | 61° |
| 2026-05-08 06:31 | -34.15356 | 150.71445 | 10373 ft | 361 kts | 61° |
| 2026-05-08 06:32 | -34.14272 | 150.74213 | 10183 ft | 347 kts | 69° |
| 2026-05-08 06:32 | -34.13497 | 150.76965 | 9973 ft | 335 kts | 72° |
| 2026-05-08 06:32 | -34.12790 | 150.79703 | 9763 ft | 324 kts | 73° |
| 2026-05-08 06:32 | -34.11907 | 150.83179 | 9504 ft | 310 kts | 73° |
| 2026-05-08 06:33 | -34.11474 | 150.84889 | 9375 ft | 303 kts | 73° |
| 2026-05-08 06:33 | -34.10853 | 150.87343 | 9191 ft | 293 kts | 73° |
| 2026-05-08 06:33 | -34.10247 | 150.89743 | 9011 ft | 284 kts | 73° |
| 2026-05-08 06:33 | -34.09667 | 150.92044 | 8839 ft | 275 kts | 73° |
| 2026-05-08 06:34 | -34.09109 | 150.94257 | 8671 ft | 267 kts | 73° |
| 2026-05-08 06:34 | -34.08560 | 150.96437 | 8506 ft | 258 kts | 73° |
| 2026-05-08 06:34 | -34.08032 | 150.98535 | 8270 ft | 254 kts | 73° |
| 2026-05-08 06:34 | -34.07495 | 151.00662 | 7918 ft | 255 kts | 73° |
| 2026-05-08 06:35 | -34.06970 | 151.02736 | 7607 ft | 254 kts | 73° |
| 2026-05-08 06:35 | -34.06438 | 151.04831 | 7300 ft | 253 kts | 73° |
| 2026-05-08 06:35 | -34.05911 | 151.06903 | 6995 ft | 252 kts | 73° |
| 2026-05-08 06:35 | -34.05377 | 151.08997 | 6687 ft | 252 kts | 73° |
| 2026-05-08 06:36 | -34.04842 | 151.11093 | 6380 ft | 251 kts | 73° |
| 2026-05-08 06:36 | -34.04317 | 151.13145 | 6091 ft | 249 kts | 73° |
| 2026-05-08 06:36 | -34.03796 | 151.15179 | 6012 ft | 248 kts | 73° |
| 2026-05-08 06:36 | -34.03262 | 151.17262 | 6004 ft | 250 kts | 73° |
| 2026-05-08 06:37 | -34.02725 | 151.19348 | 6001 ft | 250 kts | 73° |
| 2026-05-08 06:37 | -34.02190 | 151.21417 | 6000 ft | 250 kts | 73° |
| 2026-05-08 06:37 | -34.01835 | 151.22789 | 5999 ft | 250 kts | 73° |
| 2026-05-08 06:37 | -34.01132 | 151.25507 | 5999 ft | 250 kts | 73° |
| 2026-05-08 06:38 | -34.00607 | 151.27534 | 5976 ft | 248 kts | 73° |
| 2026-05-08 06:38 | -34.00087 | 151.29547 | 5726 ft | 246 kts | 73° |
| 2026-05-08 06:38 | -33.99575 | 151.31532 | 5543 ft | 240 kts | 73° |
| 2026-05-08 06:38 | -33.98901 | 151.34152 | 5187 ft | 238 kts | 73° |
| 2026-05-08 06:39 | -33.98565 | 151.35465 | 5000 ft | 237 kts | 73° |
| 2026-05-08 06:39 | -33.98073 | 151.37390 | 4815 ft | 231 kts | 73° |
| 2026-05-08 06:39 | -33.97596 | 151.39262 | 4661 ft | 224 kts | 73° |
| 2026-05-08 06:39 | -33.97138 | 151.41063 | 4498 ft | 217 kts | 73° |
| 2026-05-08 06:40 | -33.96691 | 151.42822 | 4290 ft | 213 kts | 73° |
| 2026-05-08 06:40 | -33.96273 | 151.44475 | 4205 ft | 199 kts | 73° |
| 2026-05-08 06:40 | -33.95872 | 151.46062 | 4029 ft | 191 kts | 73° |
| 2026-05-08 06:40 | -33.95362 | 151.48086 | 3796 ft | 180 kts | 73° |
| 2026-05-08 06:41 | -33.95113 | 151.49052 | 3679 ft | 175 kts | 69° |
| 2026-05-08 06:41 | -33.94384 | 151.50137 | 3446 ft | 161 kts | 16° |
| 2026-05-08 06:41 | -33.93358 | 151.50053 | 3154 ft | 140 kts | 321° |
| 2026-05-08 06:41 | -33.92738 | 151.49225 | 3010 ft | 130 kts | 290° |
| 2026-05-08 06:42 | -33.92442 | 151.48157 | 3014 ft | 129 kts | 282° |
| 2026-05-08 06:42 | -33.92176 | 151.47102 | 3005 ft | 129 kts | 284° |
| 2026-05-08 06:42 | -33.91312 | 151.46053 | 2991 ft | 145 kts | 343° |
| 2026-05-08 06:42 | -33.90244 | 151.46081 | 3021 ft | 150 kts | 354° |
| 2026-05-08 06:43 | -33.89567 | 151.45911 | 2973 ft | 139 kts | 319° |
| 2026-05-08 06:43 | -33.89194 | 151.44933 | 3002 ft | 127 kts | 262° |
| 2026-05-08 06:43 | -33.89366 | 151.43851 | 3015 ft | 127 kts | 259° |
| 2026-05-08 06:43 | -33.89475 | 151.42761 | 3004 ft | 127 kts | 264° |
| 2026-05-08 06:44 | -33.89506 | 151.41248 | 3000 ft | 128 kts | 268° |
| 2026-05-08 06:44 | -33.89489 | 151.40494 | 2999 ft | 128 kts | 270° |
| 2026-05-08 06:44 | -33.89441 | 151.39388 | 2999 ft | 128 kts | 271° |
| 2026-05-08 06:44 | -33.89442 | 151.38275 | 3001 ft | 127 kts | 263° |
| 2026-05-08 06:45 | -33.89562 | 151.37193 | 2995 ft | 125 kts | 259° |
| 2026-05-08 06:45 | -33.89745 | 151.36147 | 2899 ft | 125 kts | 256° |
| 2026-05-08 06:45 | -33.90040 | 151.34757 | 2670 ft | 124 kts | 255° |
| 2026-05-08 06:45 | -33.90274 | 151.33722 | 2503 ft | 124 kts | 254° |
| 2026-05-08 06:46 | -33.90435 | 151.33032 | 2391 ft | 124 kts | 254° |
| 2026-05-08 06:46 | -33.90757 | 151.31663 | 2169 ft | 123 kts | 254° |
| 2026-05-08 06:46 | -33.91003 | 151.30626 | 1999 ft | 123 kts | 254° |
| 2026-05-08 06:46 | -33.91168 | 151.29933 | 1885 ft | 123 kts | 254° |
| 2026-05-08 06:47 | -33.91415 | 151.28896 | 1713 ft | 123 kts | 254° |
| 2026-05-08 06:47 | -33.91656 | 151.27876 | 1544 ft | 122 kts | 254° |
| 2026-05-08 06:47 | -33.91977 | 151.26520 | 1318 ft | 122 kts | 254° |
| 2026-05-08 06:47 | -33.92135 | 151.25850 | 1207 ft | 122 kts | 254° |
| 2026-05-08 06:48 | -33.92374 | 151.24840 | 1036 ft | 122 kts | 254° |
| 2026-05-08 06:48 | -33.92614 | 151.23824 | 894 ft | 121 kts | 255° |
| 2026-05-08 06:48 | -33.92843 | 151.22829 | 719 ft | 121 kts | 255° |
| 2026-05-08 06:48 | -33.93076 | 151.21834 | 530 ft | 120 kts | 253° |
| 2026-05-08 06:49 | -33.93309 | 151.20831 | 392 ft | 121 kts | 255° |
| 2026-05-08 06:49 | -33.93547 | 151.19841 | 231 ft | 120 kts | 255° |
| 2026-05-08 06:49 | -33.93787 | 151.18854 | 66 ft | 120 kts | 253° |
| 2026-05-08 06:49 | -33.94011 | 151.17920 | 14 ft | 92 kts | 256° |
| 2026-05-08 06:50 | -33.94100 | 151.17520 | 14 ft | 6 kts | 254° |
| 2026-05-08 06:50 | -33.94112 | 151.17468 | 15 ft | 8 kts | 255° |
| 2026-05-08 06:50 | -33.94127 | 151.17404 | 16 ft | 7 kts | 254° |
| 2026-05-08 06:50 | -33.94143 | 151.17329 | 18 ft | 12 kts | 260° |
| 2026-05-08 06:51 | -33.94067 | 151.17246 | 20 ft | 14 kts | 347° |
| 2026-05-08 06:51 | -33.93959 | 151.17282 | 17 ft | 19 kts | 66° |
| 2026-05-08 06:51 | -33.93917 | 151.17458 | 11 ft | 22 kts | 74° |
| 2026-05-08 06:51 | -33.93902 | 151.17520 | 10 ft | 23 kts | 74° |
| 2026-05-08 06:52 | -33.93887 | 151.17584 | 9 ft | 23 kts | 74° |
| 2026-05-08 06:52 | -33.93828 | 151.17833 | 9 ft | 12 kts | 74° |
| 2026-05-08 06:52 | -33.93807 | 151.17928 | 13 ft | 10 kts | 75° |